sensor_id;sensor_type;location;lat;lon;timestamp;pressure;altitude;pressure_sealevel;temperature;humidity
65800;BME280;52544;48.116;11.660;2023-03-04T00:00:51;95977.25;;;1.42;100.00
65800;BME280;52544;48.116;11.660;2023-03-04T00:03:17;95975.81;;;1.35;100.00
65800;BME280;52544;48.116;11.660;2023-03-04T00:05:42;95980.91;;;1.38;100.00
65800;BME280;52544;48.116;11.660;2023-03-04T00:08:08;95979.53;;;1.29;100.00
65800;BME280;52544;48.116;11.660;2023-03-04T00:10:33;95986.19;;;1.36;100.00
65800;BME280;52544;48.116;11.660;2023-03-04T00:12:58;95978.75;;;1.27;100.00
65800;BME280;52544;48.116;11.660;2023-03-04T00:15:24;95978.94;;;1.22;100.00
65800;BME280;52544;48.116;11.660;2023-03-04T00:17:49;95980.78;;;1.20;100.00
65800;BME280;52544;48.116;11.660;2023-03-04T00:20:15;95978.94;;;1.22;100.00
65800;BME280;52544;48.116;11.660;2023-03-04T00:22:40;95991.78;;;1.27;100.00
65800;BME280;52544;48.116;11.660;2023-03-04T00:25:06;95988.66;;;1.19;100.00
65800;BME280;52544;48.116;11.660;2023-03-04T00:27:31;95984.31;;;1.19;100.00
65800;BME280;52544;48.116;11.660;2023-03-04T00:29:57;95984.31;;;1.19;100.00
65800;BME280;52544;48.116;11.660;2023-03-04T00:32:22;95989.44;;;1.21;100.00
65800;BME280;52544;48.116;11.660;2023-03-04T00:34:48;95986.22;;;1.14;100.00
65800;BME280;52544;48.116;11.660;2023-03-04T00:37:13;95987.16;;;1.13;100.00
65800;BME280;52544;48.116;11.660;2023-03-04T00:39:39;95988.91;;;1.13;100.00
65800;BME280;52544;48.116;11.660;2023-03-04T00:42:04;95994.41;;;1.07;100.00
65800;BME280;52544;48.116;11.660;2023-03-04T00:44:30;95990.53;;;0.95;100.00
65800;BME280;52544;48.116;11.660;2023-03-04T00:46:55;95992.50;;;0.90;100.00
65800;BME280;52544;48.116;11.660;2023-03-04T00:49:21;95997.81;;;0.87;100.00
65800;BME280;52544;48.116;11.660;2023-03-04T00:51:46;95992.50;;;0.90;100.00
65800;BME280;52544;48.116;11.660;2023-03-04T00:54:12;95989.53;;;0.97;100.00
65800;BME280;52544;48.116;11.660;2023-03-04T00:56:37;95985.22;;;0.98;100.00
65800;BME280;52544;48.116;11.660;2023-03-04T00:59:03;95990.84;;;0.87;100.00
65800;BME280;52544;48.116;11.660;2023-03-04T01:01:28;95993.63;;;0.83;100.00
65800;BME280;52544;48.116;11.660;2023-03-04T01:03:54;95985.53;;;0.68;100.00
65800;BME280;52544;48.116;11.660;2023-03-04T01:06:19;95983.53;;;0.53;100.00
65800;BME280;52544;48.116;11.660;2023-03-04T01:08:45;95979.16;;;0.54;100.00
65800;BME280;52544;48.116;11.660;2023-03-04T01:11:10;95987.91;;;0.53;100.00
65800;BME280;52544;48.116;11.660;2023-03-04T01:13:36;95988.81;;;0.52;100.00
65800;BME280;52544;48.116;11.660;2023-03-04T01:16:02;95978.44;;;0.72;100.00
65800;BME280;52544;48.116;11.660;2023-03-04T01:18:29;95973.88;;;0.55;100.00
65800;BME280;52544;48.116;11.660;2023-03-04T01:20:55;95971.13;;;0.60;100.00
65800;BME280;52544;48.116;11.660;2023-03-04T01:23:21;95963.91;;;0.66;100.00
65800;BME280;52544;48.116;11.660;2023-03-04T01:25:46;95968.88;;;0.72;100.00
65800;BME280;52544;48.116;11.660;2023-03-04T01:28:12;95965.66;;;0.66;100.00
65800;BME280;52544;48.116;11.660;2023-03-04T01:30:37;95969.47;;;0.57;100.00
65800;BME280;52544;48.116;11.660;2023-03-04T01:33:03;95964.28;;;0.57;100.00
65800;BME280;52544;48.116;11.660;2023-03-04T01:35:28;95967.91;;;0.53;100.00
65800;BME280;52544;48.116;11.660;2023-03-04T01:37:54;95967.00;;;0.54;100.00
65800;BME280;52544;48.116;11.660;2023-03-04T01:40:19;95956.84;;;0.48;100.00
65800;BME280;52544;48.116;11.660;2023-03-04T01:42:45;95959.53;;;0.45;100.00
65800;BME280;52544;48.116;11.660;2023-03-04T01:45:13;95958.09;;;0.38;100.00
65800;BME280;52544;48.116;11.660;2023-03-04T01:47:40;95951.06;;;0.40;100.00
65800;BME280;52544;48.116;11.660;2023-03-04T01:50:32;95948.41;;;0.41;100.00
65800;BME280;52544;48.116;11.660;2023-03-04T01:52:59;95949.03;;;0.48;100.00
65800;BME280;52544;48.116;11.660;2023-03-04T01:55:25;95947.44;;;0.44;100.00
65800;BME280;52544;48.116;11.660;2023-03-04T01:57:52;95944.53;;;0.52;100.00
65800;BME280;52544;48.116;11.660;2023-03-04T02:02:47;95939.44;;;0.48;100.00
65800;BME280;52544;48.116;11.660;2023-03-04T02:05:14;95935.19;;;0.46;100.00
65800;BME280;52544;48.116;11.660;2023-03-04T02:07:40;95936.19;;;0.43;100.00
65800;BME280;52544;48.116;11.660;2023-03-04T02:10:06;95933.88;;;0.36;100.00
65800;BME280;52544;48.116;11.660;2023-03-04T02:12:32;95930.84;;;0.46;100.00
65800;BME280;52544;48.116;11.660;2023-03-04T02:14:57;95924.94;;;0.43;100.00
65800;BME280;52544;48.116;11.660;2023-03-04T02:17:27;95928.69;;;0.36;100.00
65800;BME280;52544;48.116;11.660;2023-03-04T02:20:06;95918.63;;;0.27;100.00
65800;BME280;52544;48.116;11.660;2023-03-04T02:22:39;95923.47;;;0.36;100.00
65800;BME280;52544;48.116;11.660;2023-03-04T02:25:12;95923.66;;;0.31;100.00
65800;BME280;52544;48.116;11.660;2023-03-04T02:27:39;95916.69;;;0.32;100.00
65800;BME280;52544;48.116;11.660;2023-03-04T02:30:05;95918.25;;;0.36;100.00
65800;BME280;52544;48.116;11.660;2023-03-04T02:32:31;95913.28;;;0.30;100.00
65800;BME280;52544;48.116;11.660;2023-03-04T02:35:00;95919.41;;;0.29;100.00
65800;BME280;52544;48.116;11.660;2023-03-04T02:37:26;95920.38;;;0.26;100.00
65800;BME280;52544;48.116;11.660;2023-03-04T02:39:51;95912.06;;;0.16;100.00
65800;BME280;52544;48.116;11.660;2023-03-04T02:42:17;95912.81;;;0.20;100.00
65800;BME280;52544;48.116;11.660;2023-03-04T02:44:44;95925.63;;;0.24;100.00
65800;BME280;52544;48.116;11.660;2023-03-04T02:47:14;95917.97;;;0.21;100.00
65800;BME280;52544;48.116;11.660;2023-03-04T02:49:41;95917.97;;;0.21;100.00
65800;BME280;52544;48.116;11.660;2023-03-04T02:52:19;95921.47;;;0.20;100.00
65800;BME280;52544;48.116;11.660;2023-03-04T02:54:44;95920.44;;;0.24;100.00
65800;BME280;52544;48.116;11.660;2023-03-04T02:57:11;95916.41;;;0.17;100.00
65800;BME280;52544;48.116;11.660;2023-03-04T02:59:38;95916.25;;;0.20;100.00
65800;BME280;52544;48.116;11.660;2023-03-04T03:02:05;95915.13;;;0.28;100.00
65800;BME280;52544;48.116;11.660;2023-03-04T03:04:31;95912.75;;;0.21;100.00
65800;BME280;52544;48.116;11.660;2023-03-04T03:06:57;95908.91;;;0.08;100.00
65800;BME280;52544;48.116;11.660;2023-03-04T03:09:22;95912.31;;;0.10;100.00
65800;BME280;52544;48.116;11.660;2023-03-04T03:11:48;95914.00;;;0.11;100.00
65800;BME280;52544;48.116;11.660;2023-03-04T03:14:13;95909.78;;;0.09;100.00
65800;BME280;52544;48.116;11.660;2023-03-04T03:16:39;95915.00;;;0.09;100.00
65800;BME280;52544;48.116;11.660;2023-03-04T03:19:04;95911.13;;;-0.03;100.00
65800;BME280;52544;48.116;11.660;2023-03-04T03:21:30;95912.78;;;-0.02;100.00
65800;BME280;52544;48.116;11.660;2023-03-04T03:23:55;95910.84;;;0.03;100.00
65800;BME280;52544;48.116;11.660;2023-03-04T03:26:20;95918.56;;;0.06;100.00
65800;BME280;52544;48.116;11.660;2023-03-04T03:28:46;95923.66;;;0.09;100.00
65800;BME280;52544;48.116;11.660;2023-03-04T03:31:11;95920.34;;;0.04;100.00
65800;BME280;52544;48.116;11.660;2023-03-04T03:33:37;95921.69;;;-0.08;100.00
65800;BME280;52544;48.116;11.660;2023-03-04T03:36:02;95926.38;;;-0.17;100.00
65800;BME280;52544;48.116;11.660;2023-03-04T03:38:28;95921.31;;;-0.20;100.00
65800;BME280;52544;48.116;11.660;2023-03-04T03:40:54;95916.78;;;-0.15;100.00
65800;BME280;52544;48.116;11.660;2023-03-04T03:43:19;95925.72;;;-0.22;100.00
65800;BME280;52544;48.116;11.660;2023-03-04T03:45:45;95921.34;;;-0.22;100.00
65800;BME280;52544;48.116;11.660;2023-03-04T03:48:10;95917.34;;;-0.31;100.00
65800;BME280;52544;48.116;11.660;2023-03-04T03:50:35;95917.91;;;-0.22;100.00
65800;BME280;52544;48.116;11.660;2023-03-04T03:53:01;95920.97;;;-0.35;100.00
65800;BME280;52544;48.116;11.660;2023-03-04T03:55:27;95917.59;;;-0.37;100.00
65800;BME280;52544;48.116;11.660;2023-03-04T03:57:52;95912.38;;;-0.37;100.00
65800;BME280;52544;48.116;11.660;2023-03-04T04:00:18;95917.47;;;-0.34;100.00
65800;BME280;52544;48.116;11.660;2023-03-04T04:02:44;95914.75;;;-0.31;100.00
65800;BME280;52544;48.116;11.660;2023-03-04T04:05:10;95921.97;;;-0.39;100.00
65800;BME280;52544;48.116;11.660;2023-03-04T04:07:36;95920.28;;;-0.40;100.00
65800;BME280;52544;48.116;11.660;2023-03-04T04:10:03;95918.81;;;-0.47;100.00
65800;BME280;52544;48.116;11.660;2023-03-04T04:12:28;95913.16;;;-0.35;100.00
65800;BME280;52544;48.116;11.660;2023-03-04T04:14:54;95911.88;;;-0.23;100.00
65800;BME280;52544;48.116;11.660;2023-03-04T04:17:19;95917.47;;;-0.34;100.00
65800;BME280;52544;48.116;11.660;2023-03-04T04:19:45;95915.66;;;-0.32;100.00
65800;BME280;52544;48.116;11.660;2023-03-04T04:22:14;95913.22;;;-0.36;100.00
65800;BME280;52544;48.116;11.660;2023-03-04T04:24:40;95913.72;;;-0.27;100.00
65800;BME280;52544;48.116;11.660;2023-03-04T04:27:05;95912.28;;;-0.34;100.00
65800;BME280;52544;48.116;11.660;2023-03-04T04:29:31;95918.19;;;-0.30;100.00
65800;BME280;52544;48.116;11.660;2023-03-04T04:31:56;95910.00;;;-0.19;100.00
65800;BME280;52544;48.116;11.660;2023-03-04T04:34:22;95914.34;;;-0.20;100.00
65800;BME280;52544;48.116;11.660;2023-03-04T04:36:48;95920.41;;;-0.19;100.00
65800;BME280;52544;48.116;11.660;2023-03-04T04:39:13;95924.41;;;-0.11;100.00
65800;BME280;52544;48.116;11.660;2023-03-04T04:41:41;95908.69;;;-0.08;100.00
65800;BME280;52544;48.116;11.660;2023-03-04T04:44:07;95913.75;;;-0.05;100.00
65800;BME280;52544;48.116;11.660;2023-03-04T04:46:34;95915.03;;;-0.15;100.00
65800;BME280;52544;48.116;11.660;2023-03-04T04:48:59;95916.78;;;-0.15;100.00
65800;BME280;52544;48.116;11.660;2023-03-04T04:51:25;95913.75;;;-0.05;100.00
65800;BME280;52544;48.116;11.660;2023-03-04T04:53:51;95907.47;;;0.01;100.00
65800;BME280;52544;48.116;11.660;2023-03-04T04:56:19;95915.03;;;-0.15;100.00
65800;BME280;52544;48.116;11.660;2023-03-04T04:58:45;95918.41;;;-0.13;100.00
65800;BME280;52544;48.116;11.660;2023-03-04T05:01:12;95914.09;;;-0.14;100.00
65800;BME280;52544;48.116;11.660;2023-03-04T05:03:38;95912.81;;;-0.26;100.00
65800;BME280;52544;48.116;11.660;2023-03-04T05:06:07;95916.72;;;-0.14;100.00
65800;BME280;52544;48.116;11.660;2023-03-04T05:08:33;95913.72;;;-0.27;100.00
65800;BME280;52544;48.116;11.660;2023-03-04T05:10:59;95920.63;;;-0.26;100.00
65800;BME280;52544;48.116;11.660;2023-03-04T05:13:24;95919.94;;;-0.31;100.00
65800;BME280;52544;48.116;11.660;2023-03-04T05:15:51;95926.41;;;-0.41;100.00
65800;BME280;52544;48.116;11.660;2023-03-04T05:18:18;95926.50;;;-0.44;100.00
65800;BME280;52544;48.116;11.660;2023-03-04T05:20:43;95924.81;;;-0.45;100.00
65800;BME280;52544;48.116;11.660;2023-03-04T05:23:08;95919.53;;;-0.42;100.00
65800;BME280;52544;48.116;11.660;2023-03-04T05:25:34;95921.22;;;-0.41;100.00
65800;BME280;52544;48.116;11.660;2023-03-04T05:27:59;95923.47;;;-0.55;100.00
65800;BME280;52544;48.116;11.660;2023-03-04T05:30:26;95925.03;;;-0.51;100.00
65800;BME280;52544;48.116;11.660;2023-03-04T05:32:52;95914.41;;;-0.45;100.00
65800;BME280;52544;48.116;11.660;2023-03-04T05:35:17;95922.50;;;-0.53;100.00
65800;BME280;52544;48.116;11.660;2023-03-04T05:37:42;95917.94;;;-0.46;100.00
65800;BME280;52544;48.116;11.660;2023-03-04T05:40:08;95923.91;;;-0.44;100.00
65800;BME280;52544;48.116;11.660;2023-03-04T05:42:34;95924.19;;;-0.52;100.00
65800;BME280;52544;48.116;11.660;2023-03-04T05:44:59;95922.28;;;-0.46;100.00
65800;BME280;52544;48.116;11.660;2023-03-04T05:47:25;95926.09;;;-0.57;100.00
65800;BME280;52544;48.116;11.660;2023-03-04T05:49:50;95926.06;;;-0.55;100.00
65800;BME280;52544;48.116;11.660;2023-03-04T05:52:15;95927.81;;;-0.56;100.00
65800;BME280;52544;48.116;11.660;2023-03-04T05:54:41;95924.25;;;-0.53;100.00
65800;BME280;52544;48.116;11.660;2023-03-04T05:57:06;95929.97;;;-0.67;100.00
65800;BME280;52544;48.116;11.660;2023-03-04T05:59:32;95924.69;;;-0.65;100.00
65800;BME280;52544;48.116;11.660;2023-03-04T06:01:57;95934.47;;;-0.72;100.00
65800;BME280;52544;48.116;11.660;2023-03-04T06:04:22;95934.69;;;-0.78;100.00
65800;BME280;52544;48.116;11.660;2023-03-04T06:06:48;95941.31;;;-0.69;100.00
65800;BME280;52544;48.116;11.660;2023-03-04T06:09:13;95943.53;;;-0.84;100.00
65800;BME280;52544;48.116;11.660;2023-03-04T06:11:39;95945.59;;;-0.68;100.00
65800;BME280;52544;48.116;11.660;2023-03-04T06:14:05;95945.72;;;-0.71;100.00
65800;BME280;52544;48.116;11.660;2023-03-04T06:16:30;95940.97;;;-0.60;100.00
65800;BME280;52544;48.116;11.660;2023-03-04T06:18:56;95947.88;;;-0.59;100.00
65800;BME280;52544;48.116;11.660;2023-03-04T06:21:22;95947.66;;;-0.53;100.00
65800;BME280;52544;48.116;11.660;2023-03-04T06:23:47;95949.88;;;-0.42;100.00
65800;BME280;52544;48.116;11.660;2023-03-04T06:26:13;95952.94;;;-0.56;100.00
65800;BME280;52544;48.116;11.660;2023-03-04T06:28:43;95961.41;;;-0.49;100.00
65800;BME280;52544;48.116;11.660;2023-03-04T06:31:09;95963.16;;;-0.50;100.00
65800;BME280;52544;48.116;11.660;2023-03-04T06:33:35;95961.97;;;-0.41;100.00
65800;BME280;52544;48.116;11.660;2023-03-04T06:36:00;95959.19;;;-0.37;100.00
65800;BME280;52544;48.116;11.660;2023-03-04T06:38:26;95965.75;;;-0.27;100.00
65800;BME280;52544;48.116;11.660;2023-03-04T06:40:51;95968.47;;;-0.30;100.00
65800;BME280;52544;48.116;11.660;2023-03-04T06:43:17;95956.34;;;-0.31;100.00
65800;BME280;52544;48.116;11.660;2023-03-04T06:45:43;95968.88;;;-0.17;100.00
65800;BME280;52544;48.116;11.660;2023-03-04T06:48:09;95973.38;;;-0.22;100.00
65800;BME280;52544;48.116;11.660;2023-03-04T06:50:35;95968.56;;;-0.09;100.00
65800;BME280;52544;48.116;11.660;2023-03-04T06:53:00;95967.34;;;0.01;100.00
65800;BME280;52544;48.116;11.660;2023-03-04T06:55:25;95964.09;;;0.18;100.00
65800;BME280;52544;48.116;11.660;2023-03-04T06:57:51;95964.28;;;0.13;100.00
65800;BME280;52544;48.116;11.660;2023-03-04T07:00:17;95970.44;;;0.33;100.00
65800;BME280;52544;48.116;11.660;2023-03-04T07:02:43;95971.91;;;0.40;100.00
65800;BME280;52544;48.116;11.660;2023-03-04T07:05:10;95972.84;;;0.59;100.00
65800;BME280;52544;48.116;11.660;2023-03-04T07:07:35;95976.34;;;0.60;100.00
65800;BME280;52544;48.116;11.660;2023-03-04T07:10:01;95976.34;;;0.80;100.00
65800;BME280;52544;48.116;11.660;2023-03-04T07:12:26;95973.31;;;0.91;100.00
65800;BME280;52544;48.116;11.660;2023-03-04T07:14:52;95974.19;;;1.12;100.00
65800;BME280;52544;48.116;11.660;2023-03-04T07:17:17;95974.91;;;1.15;100.00
65800;BME280;52544;48.116;11.660;2023-03-04T07:19:43;95982.59;;;1.18;100.00
65800;BME280;52544;48.116;11.660;2023-03-04T07:22:09;95975.16;;;1.30;100.00
65800;BME280;52544;48.116;11.660;2023-03-04T07:24:34;95975.41;;;1.44;100.00
65800;BME280;52544;48.116;11.660;2023-03-04T07:27:00;95976.66;;;1.56;100.00
65800;BME280;52544;48.116;11.660;2023-03-04T07:29:25;95975.19;;;1.69;100.00
65800;BME280;52544;48.116;11.660;2023-03-04T07:31:51;95982.34;;;1.84;100.00
65800;BME280;52544;48.116;11.660;2023-03-04T07:34:16;95982.78;;;1.94;100.00
65800;BME280;52544;48.116;11.660;2023-03-04T07:36:43;95985.63;;;2.08;100.00
65800;BME280;52544;48.116;11.660;2023-03-04T07:39:10;95993.31;;;2.11;99.48
65800;BME280;52544;48.116;11.660;2023-03-04T07:41:38;95993.31;;;2.11;100.00
65800;BME280;52544;48.116;11.660;2023-03-04T07:44:05;95988.00;;;2.32;100.00
65800;BME280;52544;48.116;11.660;2023-03-04T07:46:30;95986.19;;;2.34;99.78
65800;BME280;52544;48.116;11.660;2023-03-04T07:48:56;95998.44;;;2.50;99.87
65800;BME280;52544;48.116;11.660;2023-03-04T07:51:23;95999.63;;;2.62;98.26
65800;BME280;52544;48.116;11.660;2023-03-04T07:53:51;96000.31;;;2.85;96.82
65800;BME280;52544;48.116;11.660;2023-03-04T07:56:23;96003.38;;;2.93;96.22
65800;BME280;52544;48.116;11.660;2023-03-04T07:58:49;96013.72;;;3.13;95.61
65800;BME280;52544;48.116;11.660;2023-03-04T08:01:24;96003.72;;;3.39;92.94
65800;BME280;52544;48.116;11.660;2023-03-04T08:03:50;96007.97;;;3.24;92.11
65800;BME280;52544;48.116;11.660;2023-03-04T08:06:17;96011.44;;;3.24;93.46
65800;BME280;52544;48.116;11.660;2023-03-04T08:08:44;96016.13;;;3.35;92.27
65800;BME280;52544;48.116;11.660;2023-03-04T08:11:15;96018.28;;;3.44;90.73
65800;BME280;52544;48.116;11.660;2023-03-04T08:13:41;96013.22;;;3.41;90.62
65800;BME280;52544;48.116;11.660;2023-03-04T08:16:07;96017.03;;;3.34;92.33
65800;BME280;52544;48.116;11.660;2023-03-04T08:18:34;96013.28;;;3.57;91.96
65800;BME280;52544;48.116;11.660;2023-03-04T08:20:59;96012.00;;;3.82;90.19
65800;BME280;52544;48.116;11.660;2023-03-04T08:23:25;96013.22;;;3.92;90.62
65800;BME280;52544;48.116;11.660;2023-03-04T08:25:50;96013.03;;;4.12;87.60
65800;BME280;52544;48.116;11.660;2023-03-04T08:28:16;96006.03;;;4.29;84.77
65800;BME280;52544;48.116;11.660;2023-03-04T08:30:42;96005.72;;;4.35;84.92
65800;BME280;52544;48.116;11.660;2023-03-04T08:33:08;96004.94;;;4.33;84.38
65800;BME280;52544;48.116;11.660;2023-03-04T08:35:38;96005.72;;;4.50;85.29
65800;BME280;52544;48.116;11.660;2023-03-04T08:38:10;96002.50;;;4.61;82.15
65800;BME280;52544;48.116;11.660;2023-03-04T08:40:35;96010.97;;;4.66;80.65
65800;BME280;52544;48.116;11.660;2023-03-04T08:43:01;96010.44;;;4.75;79.88
65800;BME280;52544;48.116;11.660;2023-03-04T08:45:26;95997.25;;;4.61;78.83
65800;BME280;52544;48.116;11.660;2023-03-04T08:47:52;96010.22;;;4.64;78.58
65800;BME280;52544;48.116;11.660;2023-03-04T08:50:17;96001.66;;;4.76;80.64
65800;BME280;52544;48.116;11.660;2023-03-04T08:52:43;96007.81;;;4.75;78.53
65800;BME280;52544;48.116;11.660;2023-03-04T08:55:08;96010.28;;;4.79;77.59
65800;BME280;52544;48.116;11.660;2023-03-04T08:57:34;96000.63;;;4.95;77.12
65800;BME280;52544;48.116;11.660;2023-03-04T08:59:59;96008.91;;;5.03;76.03
65800;BME280;52544;48.116;11.660;2023-03-04T09:02:25;96002.56;;;5.07;74.84
65800;BME280;52544;48.116;11.660;2023-03-04T09:04:50;96011.00;;;5.12;74.77
65800;BME280;52544;48.116;11.660;2023-03-04T09:07:15;96010.06;;;5.13;75.07
65800;BME280;52544;48.116;11.660;2023-03-04T09:09:41;96005.06;;;5.24;73.86
65800;BME280;52544;48.116;11.660;2023-03-04T09:12:06;96003.41;;;5.38;74.71
65800;BME280;52544;48.116;11.660;2023-03-04T09:14:33;96008.34;;;5.72;74.45
65800;BME280;52544;48.116;11.660;2023-03-04T09:17:01;95998.91;;;5.84;70.92
65800;BME280;52544;48.116;11.660;2023-03-04T09:19:26;95992.44;;;5.75;70.72
65800;BME280;52544;48.116;11.660;2023-03-04T09:21:52;95990.19;;;5.84;69.41
65800;BME280;52544;48.116;11.660;2023-03-04T09:24:19;95980.09;;;6.06;69.82
65800;BME280;52544;48.116;11.660;2023-03-04T09:26:49;95981.41;;;6.13;68.38
65800;BME280;52544;48.116;11.660;2023-03-04T09:29:15;95980.44;;;6.29;68.61
65800;BME280;52544;48.116;11.660;2023-03-04T09:31:40;95980.44;;;6.43;67.70
65800;BME280;52544;48.116;11.660;2023-03-04T09:34:06;95982.97;;;6.59;65.61
65800;BME280;52544;48.116;11.660;2023-03-04T09:36:31;95989.13;;;6.72;66.20
65800;BME280;52544;48.116;11.660;2023-03-04T09:39:01;95980.22;;;7.01;63.28
65800;BME280;52544;48.116;11.660;2023-03-04T09:41:48;95992.31;;;6.77;62.86
65800;BME280;52544;48.116;11.660;2023-03-04T09:44:27;95979.09;;;6.91;63.48
65800;BME280;52544;48.116;11.660;2023-03-04T09:46:56;95977.31;;;7.19;63.67
65800;BME280;52544;48.116;11.660;2023-03-04T09:49:23;95977.59;;;7.41;63.56
65800;BME280;52544;48.116;11.660;2023-03-04T09:52:03;95972.66;;;7.62;64.54
65800;BME280;52544;48.116;11.660;2023-03-04T09:54:59;95979.13;;;7.96;58.74
65800;BME280;52544;48.116;11.660;2023-03-04T09:57:44;95969.53;;;8.08;56.15
65800;BME280;52544;48.116;11.660;2023-03-04T10:05:33;95967.84;;;7.94;54.18
65800;BME280;52544;48.116;11.660;2023-03-04T10:14:04;95965.72;;;8.12;54.53
65800;BME280;52544;48.116;11.660;2023-03-04T10:16:42;95962.84;;;8.28;54.19
65800;BME280;52544;48.116;11.660;2023-03-04T10:19:23;95957.38;;;8.31;53.44
65800;BME280;52544;48.116;11.660;2023-03-04T10:21:53;95955.69;;;8.30;53.45
65800;BME280;52544;48.116;11.660;2023-03-04T10:24:21;95944.81;;;8.35;52.91
65800;BME280;52544;48.116;11.660;2023-03-04T10:26:55;95944.13;;;8.20;53.46
65800;BME280;52544;48.116;11.660;2023-03-04T10:29:23;95946.44;;;8.37;53.40
65800;BME280;52544;48.116;11.660;2023-03-04T10:31:49;95943.41;;;8.67;53.85
65800;BME280;52544;48.116;11.660;2023-03-04T10:34:16;95939.28;;;8.87;52.57
65800;BME280;52544;48.116;11.660;2023-03-04T10:36:52;95936.94;;;8.95;52.63
65800;BME280;52544;48.116;11.660;2023-03-04T10:39:30;95939.44;;;9.21;51.77
65800;BME280;52544;48.116;11.660;2023-03-04T10:44:41;95933.75;;;9.73;51.51
65800;BME280;52544;48.116;11.660;2023-03-04T10:47:09;95925.34;;;9.91;50.65
65800;BME280;52544;48.116;11.660;2023-03-04T10:49:52;95932.09;;;10.17;50.02
65800;BME280;52544;48.116;11.660;2023-03-04T10:52:38;95923.66;;;10.23;51.63
65800;BME280;52544;48.116;11.660;2023-03-04T10:55:15;95926.84;;;10.29;49.58
65800;BME280;52544;48.116;11.660;2023-03-04T10:57:42;95924.53;;;10.13;49.80
65800;BME280;52544;48.116;11.660;2023-03-04T11:02:50;95920.34;;;10.33;49.79
65800;BME280;52544;48.116;11.660;2023-03-04T11:05:19;95911.41;;;10.56;48.74
65800;BME280;52544;48.116;11.660;2023-03-04T11:07:58;95911.88;;;10.72;48.90
65800;BME280;52544;48.116;11.660;2023-03-04T11:10:38;95912.50;;;10.54;47.56
65800;BME280;52544;48.116;11.660;2023-03-04T11:15:56;95911.66;;;10.08;47.86
65800;BME280;52544;48.116;11.660;2023-03-04T11:18:30;95916.44;;;9.81;48.90
65800;BME280;52544;48.116;11.660;2023-03-04T11:20:58;95908.56;;;9.45;48.94
65800;BME280;52544;48.116;11.660;2023-03-04T11:26:00;95917.06;;;9.02;50.14
65800;BME280;52544;48.116;11.660;2023-03-04T11:28:38;95913.56;;;9.26;51.29
65800;BME280;52544;48.116;11.660;2023-03-04T11:31:13;95911.38;;;9.66;49.72
65800;BME280;52544;48.116;11.660;2023-03-04T11:39:34;95906.50;;;10.51;48.46
65800;BME280;52544;48.116;11.660;2023-03-04T11:42:10;95910.56;;;10.56;48.10
65800;BME280;52544;48.116;11.660;2023-03-04T11:44:39;95904.59;;;10.86;47.74
65800;BME280;52544;48.116;11.660;2023-03-04T11:59:11;95888.47;;;10.34;47.93
65800;BME280;52544;48.116;11.660;2023-03-04T12:09:53;95881.19;;;10.70;48.32
65800;BME280;52544;48.116;11.660;2023-03-04T12:15:35;95874.56;;;10.75;46.45
65800;BME280;52544;48.116;11.660;2023-03-04T12:23:52;95858.41;;;10.13;48.85
65800;BME280;52544;48.116;11.660;2023-03-04T12:26:39;95848.88;;;10.44;48.05
65800;BME280;52544;48.116;11.660;2023-03-04T12:32:24;95851.81;;;10.30;48.09
65800;BME280;52544;48.116;11.660;2023-03-04T12:43:50;95833.28;;;10.41;47.92
65800;BME280;52544;48.116;11.660;2023-03-04T12:46:24;95828.53;;;10.56;48.33
65800;BME280;52544;48.116;11.660;2023-03-04T12:49:08;95823.50;;;10.85;47.07
65800;BME280;52544;48.116;11.660;2023-03-04T12:54:36;95810.78;;;11.20;46.29
65800;BME280;52544;48.116;11.660;2023-03-04T12:57:10;95814.22;;;11.11;47.61
65800;BME280;52544;48.116;11.660;2023-03-04T12:59:42;95814.75;;;11.47;47.45
65800;BME280;52544;48.116;11.660;2023-03-04T13:02:32;95808.09;;;11.83;45.26
65800;BME280;52544;48.116;11.660;2023-03-04T13:05:28;95807.88;;;11.96;45.41
65800;BME280;52544;48.116;11.660;2023-03-04T13:08:24;95799.03;;;12.36;44.61
65800;BME280;52544;48.116;11.660;2023-03-04T13:10:52;95798.09;;;12.56;43.86
65800;BME280;52544;48.116;11.660;2023-03-04T13:13:37;95789.91;;;12.79;43.41
65800;BME280;52544;48.116;11.660;2023-03-04T13:18:42;95797.78;;;11.38;45.80
65800;BME280;52544;48.116;11.660;2023-03-04T13:21:21;95799.44;;;10.88;47.09
65800;BME280;52544;48.116;11.660;2023-03-04T13:23:47;95793.63;;;10.62;48.17
65800;BME280;52544;48.116;11.660;2023-03-04T13:26:19;95800.22;;;10.24;49.68
65800;BME280;52544;48.116;11.660;2023-03-04T13:28:51;95792.91;;;10.60;49.42
65800;BME280;52544;48.116;11.660;2023-03-04T13:31:20;95796.13;;;10.95;48.72
65800;BME280;52544;48.116;11.660;2023-03-04T13:33:50;95791.53;;;11.39;47.42
65800;BME280;52544;48.116;11.660;2023-03-04T13:36:53;95786.84;;;11.73;46.18
65800;BME280;52544;48.116;11.660;2023-03-04T13:41:50;95779.72;;;12.05;46.15
65800;BME280;52544;48.116;11.660;2023-03-04T13:47:08;95780.88;;;12.31;46.13
65800;BME280;52544;48.116;11.660;2023-03-04T13:49:33;95769.34;;;12.81;44.57
65800;BME280;52544;48.116;11.660;2023-03-04T13:52:36;95772.56;;;12.74;44.46
65800;BME280;52544;48.116;11.660;2023-03-04T13:55:37;95775.34;;;12.63;44.63
65800;BME280;52544;48.116;11.660;2023-03-04T13:58:22;95772.28;;;11.68;46.28
65800;BME280;52544;48.116;11.660;2023-03-04T14:00:52;95772.66;;;11.84;47.25
65800;BME280;52544;48.116;11.660;2023-03-04T14:03:29;95776.41;;;12.22;45.91
65800;BME280;52544;48.116;11.660;2023-03-04T14:06:15;95773.22;;;11.88;45.34
65800;BME280;52544;48.116;11.660;2023-03-04T14:08:42;95771.56;;;11.87;46.34
65800;BME280;52544;48.116;11.660;2023-03-04T14:11:18;95769.50;;;11.69;46.20
65800;BME280;52544;48.116;11.660;2023-03-04T14:13:46;95775.66;;;11.70;45.86
65800;BME280;52544;48.116;11.660;2023-03-04T14:16:11;95764.47;;;11.66;46.03
65800;BME280;52544;48.116;11.660;2023-03-04T14:18:37;95768.97;;;11.45;46.74